createdAt,value
2017-07-09T00:00:05.846Z,19.10
2017-07-09T00:02:33.412Z,19.10
2017-07-09T00:05:00.982Z,19.10
2017-07-09T00:07:28.591Z,19.00
2017-07-09T00:09:56.156Z,19.00
2017-07-09T00:12:31.665Z,19.00
2017-07-09T00:14:59.236Z,19.00
2017-07-09T00:17:26.816Z,19.00
2017-07-09T00:19:54.404Z,19.10
2017-07-09T00:22:21.967Z,19.10
2017-07-09T00:24:49.533Z,19.10
2017-07-09T00:27:17.133Z,19.20
2017-07-09T00:29:44.696Z,19.20
2017-07-09T00:32:12.268Z,19.20
2017-07-09T00:34:39.859Z,19.20
2017-07-09T00:37:07.430Z,19.20
2017-07-09T00:39:35.000Z,19.30
2017-07-09T00:42:02.588Z,19.20
2017-07-09T00:44:30.159Z,19.20
2017-07-09T00:46:57.730Z,19.20
2017-07-09T00:49:25.315Z,19.20
2017-07-09T00:51:52.880Z,19.20
2017-07-09T00:54:20.449Z,19.10
2017-07-09T00:56:48.945Z,19.20
2017-07-09T00:59:16.514Z,19.20
2017-07-09T01:01:44.080Z,19.10
2017-07-09T01:04:11.673Z,19.10
2017-07-09T01:06:39.241Z,19.00
2017-07-09T01:09:06.812Z,18.90
2017-07-09T01:11:34.402Z,18.90
2017-07-09T01:14:01.976Z,18.80
2017-07-09T01:16:29.541Z,18.80
2017-07-09T01:18:57.132Z,18.70
2017-07-09T01:21:24.704Z,18.70
2017-07-09T01:23:52.279Z,18.70
2017-07-09T01:26:19.864Z,18.70
2017-07-09T01:28:47.437Z,18.70
2017-07-09T01:31:15.004Z,18.70
2017-07-09T01:33:42.601Z,18.70
2017-07-09T01:36:10.179Z,18.70
2017-07-09T01:38:37.757Z,18.70
2017-07-09T01:41:05.352Z,18.60
2017-07-09T01:43:32.916Z,18.60
2017-07-09T01:46:00.487Z,18.60
2017-07-09T01:48:28.077Z,18.60
2017-07-09T01:50:55.651Z,18.70
2017-07-09T01:53:23.212Z,18.80
2017-07-09T01:55:50.753Z,18.70
2017-07-09T01:58:18.280Z,18.70
2017-07-09T02:00:45.811Z,18.60
2017-07-09T02:03:13.364Z,18.60
2017-07-09T02:05:40.904Z,18.50
2017-07-09T02:08:08.441Z,18.50
2017-07-09T02:10:36.011Z,18.40
2017-07-09T02:13:03.538Z,18.40
2017-07-09T02:15:31.072Z,18.30
2017-07-09T02:17:58.622Z,18.30
2017-07-09T02:20:26.156Z,18.30
2017-07-09T02:22:53.690Z,18.30
2017-07-09T02:25:21.239Z,18.20
2017-07-09T02:27:48.771Z,18.10
2017-07-09T02:30:16.302Z,18.10
2017-07-09T02:32:43.856Z,18.10
2017-07-09T02:35:11.386Z,18.00
2017-07-09T02:37:38.914Z,17.90
2017-07-09T02:40:06.479Z,17.90
2017-07-09T02:42:34.010Z,17.80
2017-07-09T02:45:01.538Z,17.80
2017-07-09T02:47:29.087Z,17.80
2017-07-09T02:49:56.634Z,17.70
2017-07-09T02:52:24.158Z,17.80
2017-07-09T02:54:51.703Z,17.70
2017-07-09T02:57:19.240Z,17.70
2017-07-09T02:59:46.767Z,17.70
2017-07-09T03:02:14.320Z,17.70
2017-07-09T03:04:41.842Z,17.70
2017-07-09T03:07:09.374Z,17.70
2017-07-09T03:09:36.927Z,17.60
2017-07-09T03:12:04.453Z,17.60
2017-07-09T03:14:31.979Z,17.60
2017-07-09T03:16:59.531Z,17.50
2017-07-09T03:19:27.058Z,17.50
2017-07-09T03:21:55.367Z,17.40
2017-07-09T03:24:23.084Z,17.40
2017-07-09T03:26:50.807Z,17.40
2017-07-09T03:29:18.339Z,17.40
2017-07-09T03:31:45.887Z,17.40
2017-07-09T03:34:13.418Z,17.40
2017-07-09T03:36:40.947Z,17.40
2017-07-09T03:39:08.495Z,17.40
2017-07-09T03:41:36.040Z,17.40
2017-07-09T03:44:03.565Z,17.40
2017-07-09T03:46:31.110Z,17.40
2017-07-09T03:48:58.638Z,17.40
2017-07-09T03:51:26.167Z,17.40
2017-07-09T03:53:53.714Z,17.50
2017-07-09T03:56:21.242Z,17.50
2017-07-09T03:58:48.766Z,17.50
2017-07-09T04:01:16.550Z,17.50
2017-07-09T04:03:44.084Z,17.50
2017-07-09T04:06:11.622Z,17.50
2017-07-09T04:08:39.170Z,17.60
2017-07-09T04:11:06.699Z,17.60
2017-07-09T04:13:34.225Z,17.70
2017-07-09T04:16:01.769Z,17.70
2017-07-09T04:18:29.293Z,17.70
2017-07-09T04:20:56.818Z,17.80
2017-07-09T04:23:24.369Z,17.80
2017-07-09T04:25:51.897Z,17.90
2017-07-09T04:28:19.426Z,18.00
2017-07-09T04:30:46.974Z,18.10
2017-07-09T04:33:14.497Z,18.20
2017-07-09T04:35:42.027Z,18.30
2017-07-09T04:38:09.577Z,18.40
2017-07-09T04:40:37.104Z,18.50
2017-07-09T04:43:04.624Z,18.60
2017-07-09T04:45:32.170Z,18.60
2017-07-09T04:47:59.697Z,18.80
2017-07-09T04:50:27.222Z,18.80
2017-07-09T04:52:54.779Z,18.90
2017-07-09T04:55:22.315Z,18.90
2017-07-09T04:57:49.846Z,18.90
2017-07-09T05:00:17.391Z,19.00
2017-07-09T05:02:44.925Z,19.00
2017-07-09T05:05:12.459Z,19.10
2017-07-09T05:07:40.010Z,19.20
2017-07-09T05:10:07.545Z,19.20
2017-07-09T05:12:35.075Z,19.30
2017-07-09T05:15:02.622Z,19.40
2017-07-09T05:17:30.153Z,19.40
2017-07-09T05:19:57.686Z,19.50
2017-07-09T05:22:25.248Z,19.60
2017-07-09T05:24:52.778Z,19.70
2017-07-09T05:27:20.306Z,19.70
2017-07-09T05:29:47.862Z,19.80
2017-07-09T05:32:15.391Z,19.90
2017-07-09T05:34:42.921Z,20.00
2017-07-09T05:37:10.481Z,20.10
2017-07-09T05:39:38.007Z,20.20
2017-07-09T05:42:05.531Z,20.30
2017-07-09T05:44:33.085Z,20.50
2017-07-09T05:47:00.616Z,20.60
2017-07-09T05:49:28.142Z,20.70
2017-07-09T05:51:55.690Z,20.80
2017-07-09T05:54:23.225Z,21.00
2017-07-09T05:56:50.754Z,21.00
2017-07-09T05:59:18.314Z,21.20
2017-07-09T06:01:45.838Z,21.30
2017-07-09T06:04:13.369Z,21.20
2017-07-09T06:06:41.057Z,21.40
2017-07-09T06:09:08.616Z,21.40
2017-07-09T06:11:36.190Z,21.60
2017-07-09T06:14:03.737Z,21.60
2017-07-09T06:16:31.396Z,21.50
2017-07-09T06:18:58.982Z,21.50
2017-07-09T06:21:26.645Z,21.70
2017-07-09T06:23:54.178Z,22.00
2017-07-09T06:26:21.743Z,22.10
2017-07-09T06:28:49.294Z,22.30
2017-07-09T06:31:16.825Z,22.40
2017-07-09T06:33:44.359Z,22.70
2017-07-09T06:36:11.911Z,23.00
2017-07-09T06:38:39.443Z,23.40
2017-07-09T06:41:06.999Z,23.60
2017-07-09T06:43:34.549Z,23.80
2017-07-09T06:46:02.082Z,23.80
2017-07-09T06:48:29.629Z,23.70
2017-07-09T06:50:57.976Z,23.80
2017-07-09T06:53:25.510Z,23.80
2017-07-09T06:55:53.054Z,23.70
2017-07-09T06:58:20.831Z,23.80
2017-07-09T07:00:48.371Z,23.60
2017-07-09T07:03:15.903Z,23.50
2017-07-09T07:05:44.224Z,23.40
2017-07-09T07:08:11.788Z,23.30
2017-07-09T07:10:39.314Z,23.50
2017-07-09T07:13:06.911Z,23.60
2017-07-09T07:15:34.458Z,23.70
2017-07-09T07:18:01.981Z,23.90
2017-07-09T07:20:29.521Z,24.10
2017-07-09T07:22:57.050Z,24.50
2017-07-09T07:25:24.694Z,24.90
2017-07-09T07:27:52.259Z,25.10
2017-07-09T07:30:19.781Z,25.50
2017-07-09T07:32:48.091Z,25.50
2017-07-09T07:35:15.651Z,25.50
2017-07-09T07:37:43.179Z,25.50
2017-07-09T07:40:10.873Z,25.50
2017-07-09T07:42:38.453Z,25.50
2017-07-09T07:45:05.979Z,25.80
2017-07-09T07:47:33.513Z,26.10
2017-07-09T07:50:01.825Z,26.20
2017-07-09T07:52:29.390Z,26.20
2017-07-09T07:54:56.906Z,26.50
2017-07-09T07:57:25.206Z,26.90
2017-07-09T07:59:52.740Z,26.90
2017-07-09T08:02:20.346Z,26.70
2017-07-09T08:04:47.896Z,26.80
2017-07-09T08:07:15.431Z,26.70
2017-07-09T08:09:43.026Z,26.30
2017-07-09T08:12:10.578Z,26.40
2017-07-09T08:14:38.241Z,26.20
2017-07-09T08:17:05.902Z,26.10
2017-07-09T08:19:33.473Z,25.90
2017-07-09T08:22:01.003Z,25.90
2017-07-09T08:24:28.527Z,25.90
2017-07-09T08:26:56.067Z,25.90
2017-07-09T08:29:23.584Z,26.00
2017-07-09T08:31:51.101Z,25.70
2017-07-09T08:34:18.653Z,25.90
2017-07-09T08:36:46.277Z,26.10
2017-07-09T08:39:13.797Z,26.00
2017-07-09T08:41:41.356Z,25.80
2017-07-09T08:44:08.960Z,25.40
2017-07-09T08:46:36.513Z,25.10
2017-07-09T08:49:04.076Z,25.00
2017-07-09T08:51:31.603Z,24.90
2017-07-09T08:53:59.134Z,24.60
2017-07-09T08:56:26.705Z,24.60
2017-07-09T08:58:55.007Z,24.40
2017-07-09T09:01:22.532Z,24.40
2017-07-09T09:03:50.088Z,24.40
2017-07-09T09:06:17.726Z,24.50
2017-07-09T09:08:45.373Z,24.50
2017-07-09T09:11:12.934Z,24.60
2017-07-09T09:13:40.462Z,24.40
2017-07-09T09:16:07.998Z,24.50
2017-07-09T09:18:35.546Z,24.70
2017-07-09T09:21:03.181Z,25.00
2017-07-09T09:23:30.742Z,25.00
2017-07-09T09:25:58.285Z,25.00
2017-07-09T09:28:25.814Z,25.00
2017-07-09T09:30:53.349Z,25.20
2017-07-09T09:33:21.074Z,25.00
2017-07-09T09:35:48.601Z,25.10
2017-07-09T09:38:17.009Z,25.80
2017-07-09T09:40:44.551Z,25.80
2017-07-09T09:43:12.137Z,26.00
2017-07-09T09:45:39.690Z,26.20
2017-07-09T09:48:07.351Z,26.40
2017-07-09T09:50:34.875Z,26.30
2017-07-09T09:53:03.163Z,26.50
2017-07-09T09:55:30.758Z,26.50
2017-07-09T09:57:58.409Z,26.50
2017-07-09T10:00:25.974Z,26.20
2017-07-09T10:02:53.518Z,26.40
2017-07-09T10:05:21.051Z,26.40
2017-07-09T10:07:49.363Z,26.40
2017-07-09T10:10:17.024Z,26.30
2017-07-09T10:12:44.592Z,26.40
2017-07-09T10:15:12.146Z,26.40
2017-07-09T10:17:39.693Z,26.20
2017-07-09T10:20:07.222Z,25.90
2017-07-09T10:22:34.742Z,25.60
2017-07-09T10:25:02.290Z,25.40
2017-07-09T10:27:29.823Z,25.00
2017-07-09T10:29:57.346Z,24.70
2017-07-09T10:32:24.898Z,24.70
2017-07-09T10:34:52.441Z,24.70
2017-07-09T10:37:19.968Z,24.60
2017-07-09T10:39:47.524Z,24.60
2017-07-09T10:42:15.063Z,24.60
2017-07-09T10:44:42.606Z,24.60
2017-07-09T10:47:10.930Z,24.60
2017-07-09T10:49:38.454Z,24.60
2017-07-09T10:52:05.979Z,24.70
2017-07-09T10:54:33.517Z,25.00
2017-07-09T10:57:01.061Z,25.40
2017-07-09T10:59:28.594Z,25.70
2017-07-09T11:01:56.137Z,25.90
2017-07-09T11:04:24.433Z,26.20
2017-07-09T11:06:52.031Z,26.20
2017-07-09T11:09:19.675Z,26.60
2017-07-09T11:11:47.198Z,27.20
2017-07-09T11:14:15.513Z,28.00
2017-07-09T11:16:43.083Z,28.00
2017-07-09T11:19:10.610Z,28.10
2017-07-09T11:21:38.190Z,28.20
2017-07-09T11:24:05.750Z,28.10
2017-07-09T11:26:33.279Z,28.30
2017-07-09T11:29:01.591Z,28.80
2017-07-09T11:31:29.155Z,28.80
2017-07-09T11:33:57.283Z,29.00
2017-07-09T11:36:25.571Z,29.60
2017-07-09T11:38:53.434Z,29.60
2017-07-09T11:41:20.976Z,29.90
2017-07-09T11:43:49.299Z,31.00
2017-07-09T11:46:16.859Z,31.00
2017-07-09T11:48:44.392Z,31.30
2017-07-09T11:51:11.929Z,31.10
2017-07-09T11:53:40.255Z,33.10
2017-07-09T11:56:07.782Z,33.00
2017-07-09T11:58:35.310Z,34.20
2017-07-09T12:01:02.849Z,33.60
2017-07-09T12:03:30.374Z,32.80
2017-07-09T12:05:57.952Z,32.40
2017-07-09T12:08:25.497Z,31.70
2017-07-09T12:10:53.077Z,31.80
2017-07-09T12:13:20.632Z,31.70
2017-07-09T12:15:48.183Z,31.70
2017-07-09T12:18:15.752Z,32.10
2017-07-09T12:20:43.308Z,34.20
2017-07-09T12:23:10.860Z,34.70
2017-07-09T12:25:38.385Z,35.30
2017-07-09T12:28:06.669Z,39.40
2017-07-09T12:30:34.215Z,39.30
2017-07-09T12:33:02.504Z,42.70
2017-07-09T12:35:30.025Z,42.60
2017-07-09T12:37:57.571Z,43.20
2017-07-09T12:40:25.155Z,43.50
2017-07-09T12:42:53.491Z,45.40
2017-07-09T12:45:21.045Z,45.30
2017-07-09T12:47:48.605Z,44.80
2017-07-09T12:50:16.135Z,45.60
2017-07-09T12:52:43.679Z,46.30
2017-07-09T12:55:12.791Z,46.50
2017-07-09T12:57:40.383Z,46.40
2017-07-09T13:00:07.991Z,45.80
2017-07-09T13:02:36.319Z,46.30
2017-07-09T13:05:03.849Z,46.30
2017-07-09T13:07:31.402Z,43.90
2017-07-09T13:09:59.691Z,40.60
2017-07-09T13:12:27.214Z,40.50
2017-07-09T13:14:54.755Z,42.10
2017-07-09T13:17:22.279Z,43.30
2017-07-09T13:19:49.805Z,44.40
2017-07-09T13:22:17.349Z,45.20
2017-07-09T13:24:44.874Z,44.70
2017-07-09T13:27:12.394Z,45.70
2017-07-09T13:29:39.938Z,44.90
2017-07-09T13:32:08.256Z,46.30
2017-07-09T13:34:35.784Z,46.20
2017-07-09T13:37:03.325Z,47.40
2017-07-09T13:39:30.850Z,46.70
2017-07-09T13:41:58.402Z,46.30
2017-07-09T13:44:25.945Z,46.80
2017-07-09T13:46:53.515Z,46.40
2017-07-09T13:49:21.076Z,46.90
2017-07-09T13:51:48.635Z,47.40
2017-07-09T13:54:16.289Z,48.00
2017-07-09T13:56:43.860Z,48.30
2017-07-09T13:59:11.517Z,47.30
2017-07-09T14:01:39.046Z,47.00
2017-07-09T14:04:06.575Z,47.10
2017-07-09T14:06:34.909Z,48.20
2017-07-09T14:09:02.464Z,48.10
2017-07-09T14:11:30.027Z,48.10
